sensor_id;sensor_type;location;lat;lon;timestamp;pressure;altitude;pressure_sealevel;temperature;humidity
60240;BME280;46102;39.012;-7.064;2022-11-24T00:00:08;98895.63;;;13.98;100.00
60240;BME280;46102;39.012;-7.064;2022-11-24T00:02:09;98897.59;;;13.98;100.00
60240;BME280;46102;39.012;-7.064;2022-11-24T00:04:10;98904.59;;;13.95;100.00
60240;BME280;46102;39.012;-7.064;2022-11-24T00:06:13;98892.75;;;13.94;100.00
60240;BME280;46102;39.012;-7.064;2022-11-24T00:08:14;98895.50;;;13.94;100.00
60240;BME280;46102;39.012;-7.064;2022-11-24T00:10:15;98891.59;;;13.95;100.00
60240;BME280;46102;39.012;-7.064;2022-11-24T00:12:15;98877.81;;;13.95;100.00
60240;BME280;46102;39.012;-7.064;2022-11-24T00:14:16;98878.63;;;13.96;100.00
60240;BME280;46102;39.012;-7.064;2022-11-24T00:16:22;98880.06;;;13.93;100.00
60240;BME280;46102;39.012;-7.064;2022-11-24T00:18:23;98876.84;;;13.91;100.00
60240;BME280;46102;39.012;-7.064;2022-11-24T00:20:24;98884.78;;;13.93;100.00
60240;BME280;46102;39.012;-7.064;2022-11-24T00:22:25;98886.75;;;13.92;100.00
60240;BME280;46102;39.012;-7.064;2022-11-24T00:24:25;98883.19;;;13.92;100.00
60240;BME280;46102;39.012;-7.064;2022-11-24T00:26:28;98889.03;;;13.90;100.00
60240;BME280;46102;39.012;-7.064;2022-11-24T00:28:29;98889.03;;;13.90;100.00
60240;BME280;46102;39.012;-7.064;2022-11-24T00:30:32;98891.78;;;13.90;100.00
60240;BME280;46102;39.012;-7.064;2022-11-24T00:32:32;98891.31;;;13.88;100.00
60240;BME280;46102;39.012;-7.064;2022-11-24T00:34:33;98894.06;;;13.88;100.00
60240;BME280;46102;39.012;-7.064;2022-11-24T00:36:34;98893.25;;;13.88;100.00
60240;BME280;46102;39.012;-7.064;2022-11-24T00:38:35;98892.94;;;13.89;100.00
60240;BME280;46102;39.012;-7.064;2022-11-24T00:40:36;98897.31;;;13.90;100.00
60240;BME280;46102;39.012;-7.064;2022-11-24T00:42:36;98890.97;;;13.90;100.00
60240;BME280;46102;39.012;-7.064;2022-11-24T00:44:37;98903.09;;;13.98;100.00
60240;BME280;46102;39.012;-7.064;2022-11-24T00:46:38;98893.38;;;13.91;100.00
60240;BME280;46102;39.012;-7.064;2022-11-24T00:48:39;98890.34;;;13.84;100.00
60240;BME280;46102;39.012;-7.064;2022-11-24T00:50:39;98894.75;;;13.77;100.00
60240;BME280;46102;39.012;-7.064;2022-11-24T00:52:40;98887.16;;;13.73;100.00
60240;BME280;46102;39.012;-7.064;2022-11-24T00:54:41;98885.84;;;13.71;100.00
60240;BME280;46102;39.012;-7.064;2022-11-24T00:56:41;98884.25;;;13.70;100.00
60240;BME280;46102;39.012;-7.064;2022-11-24T00:58:42;98873.22;;;13.70;100.00
60240;BME280;46102;39.012;-7.064;2022-11-24T01:00:43;98879.22;;;13.72;100.00
60240;BME280;46102;39.012;-7.064;2022-11-24T01:02:44;98878.06;;;13.73;100.00
60240;BME280;46102;39.012;-7.064;2022-11-24T01:04:44;98872.22;;;13.74;100.00
60240;BME280;46102;39.012;-7.064;2022-11-24T01:06:45;98871.06;;;13.75;100.00
60240;BME280;46102;39.012;-7.064;2022-11-24T01:08:46;98871.41;;;13.74;100.00
60240;BME280;46102;39.012;-7.064;2022-11-24T01:10:47;98866.72;;;13.74;100.00
60240;BME280;46102;39.012;-7.064;2022-11-24T01:12:47;98866.72;;;13.74;100.00
60240;BME280;46102;39.012;-7.064;2022-11-24T01:14:49;98863.94;;;13.74;100.00
60240;BME280;46102;39.012;-7.064;2022-11-24T01:16:50;98860.88;;;13.76;100.00
60240;BME280;46102;39.012;-7.064;2022-11-24T01:18:51;98860.88;;;13.76;100.00
60240;BME280;46102;39.012;-7.064;2022-11-24T01:20:52;98862.00;;;13.75;100.00
60240;BME280;46102;39.012;-7.064;2022-11-24T01:22:53;98866.72;;;13.74;100.00
60240;BME280;46102;39.012;-7.064;2022-11-24T01:24:53;98861.19;;;13.74;100.00
60240;BME280;46102;39.012;-7.064;2022-11-24T01:26:54;98858.44;;;13.74;100.00
60240;BME280;46102;39.012;-7.064;2022-11-24T01:28:56;98855.69;;;13.74;100.00
60240;BME280;46102;39.012;-7.064;2022-11-24T01:30:59;98847.41;;;13.74;100.00
60240;BME280;46102;39.012;-7.064;2022-11-24T01:33:00;98846.59;;;13.74;100.00
60240;BME280;46102;39.012;-7.064;2022-11-24T01:35:01;98845.44;;;13.75;100.00
60240;BME280;46102;39.012;-7.064;2022-11-24T01:37:02;98847.88;;;13.77;100.00
60240;BME280;46102;39.012;-7.064;2022-11-24T01:39:03;98836.88;;;13.77;100.00
60240;BME280;46102;39.012;-7.064;2022-11-24T01:41:18;98837.97;;;13.75;100.00
60240;BME280;46102;39.012;-7.064;2022-11-24T01:43:20;98836.06;;;13.76;100.00
60240;BME280;46102;39.012;-7.064;2022-11-24T01:45:36;98828.91;;;13.75;100.00
60240;BME280;46102;39.012;-7.064;2022-11-24T01:47:40;98829.25;;;13.73;100.00
60240;BME280;46102;39.012;-7.064;2022-11-24T01:49:44;98831.53;;;13.71;100.00
60240;BME280;46102;39.012;-7.064;2022-11-24T01:54:01;98837.22;;;13.66;100.00
60240;BME280;46102;39.012;-7.064;2022-11-24T01:56:04;98842.41;;;13.68;100.00
60240;BME280;46102;39.012;-7.064;2022-11-24T01:58:15;98839.97;;;13.66;100.00
60240;BME280;46102;39.012;-7.064;2022-11-24T02:00:17;98838.84;;;13.67;100.00
60240;BME280;46102;39.012;-7.064;2022-11-24T02:02:19;98852.28;;;13.69;100.00
60240;BME280;46102;39.012;-7.064;2022-11-24T02:04:24;98844.69;;;13.66;100.00
60240;BME280;46102;39.012;-7.064;2022-11-24T02:06:28;98834.81;;;13.65;100.00
60240;BME280;46102;39.012;-7.064;2022-11-24T02:08:54;98834.81;;;13.65;100.00
60240;BME280;46102;39.012;-7.064;2022-11-24T02:10:56;98833.34;;;13.67;100.00
60240;BME280;46102;39.012;-7.064;2022-11-24T02:12:58;98840.13;;;13.70;100.00
60240;BME280;46102;39.012;-7.064;2022-11-24T02:15:00;98846.13;;;13.72;100.00
60240;BME280;46102;39.012;-7.064;2022-11-24T02:17:01;98838.34;;;13.74;100.00
60240;BME280;46102;39.012;-7.064;2022-11-24T02:21:21;98836.88;;;13.77;100.00
60240;BME280;46102;39.012;-7.064;2022-11-24T02:25:53;98841.69;;;13.80;100.00
60240;BME280;46102;39.012;-7.064;2022-11-24T02:28:01;98836.66;;;13.82;100.00
60240;BME280;46102;39.012;-7.064;2022-11-24T02:30:05;98824.03;;;13.81;100.00
60240;BME280;46102;39.012;-7.064;2022-11-24T02:32:08;98823.69;;;13.82;100.00
60240;BME280;46102;39.012;-7.064;2022-11-24T02:34:10;98825.63;;;13.82;100.00
60240;BME280;46102;39.012;-7.064;2022-11-24T02:36:11;98821.75;;;13.83;100.00
60240;BME280;46102;39.012;-7.064;2022-11-24T02:38:12;98812.00;;;13.85;100.00
60240;BME280;46102;39.012;-7.064;2022-11-24T02:40:15;98817.03;;;13.83;100.00
60240;BME280;46102;39.012;-7.064;2022-11-24T02:42:16;98808.28;;;13.81;100.00
60240;BME280;46102;39.012;-7.064;2022-11-24T02:44:19;98815.09;;;13.84;100.00
60240;BME280;46102;39.012;-7.064;2022-11-24T02:46:21;98811.38;;;13.80;100.00
60240;BME280;46102;39.012;-7.064;2022-11-24T02:48:22;98803.91;;;13.80;100.00
60240;BME280;46102;39.012;-7.064;2022-11-24T02:50:23;98814.94;;;13.80;100.00
60240;BME280;46102;39.012;-7.064;2022-11-24T02:52:24;98808.28;;;13.81;100.00
60240;BME280;46102;39.012;-7.064;2022-11-24T02:54:24;98816.25;;;13.83;100.00
60240;BME280;46102;39.012;-7.064;2022-11-24T02:56:26;98819.00;;;13.83;100.00
60240;BME280;46102;39.012;-7.064;2022-11-24T02:58:26;98828.06;;;13.83;100.00
60240;BME280;46102;39.012;-7.064;2022-11-24T03:00:27;98823.84;;;13.86;100.00
60240;BME280;46102;39.012;-7.064;2022-11-24T03:02:28;98809.25;;;13.85;100.00
60240;BME280;46102;39.012;-7.064;2022-11-24T03:04:28;98810.53;;;13.88;100.00
60240;BME280;46102;39.012;-7.064;2022-11-24T03:06:29;98802.72;;;13.90;100.00
60240;BME280;46102;39.012;-7.064;2022-11-24T03:08:30;98796.06;;;13.91;100.00
60240;BME280;46102;39.012;-7.064;2022-11-24T03:10:31;98801.09;;;13.89;100.00
60240;BME280;46102;39.012;-7.064;2022-11-24T03:12:31;98800.78;;;13.90;100.00
60240;BME280;46102;39.012;-7.064;2022-11-24T03:14:32;98812.97;;;13.89;100.00
60240;BME280;46102;39.012;-7.064;2022-11-24T03:16:33;98809.38;;;13.89;100.00
60240;BME280;46102;39.012;-7.064;2022-11-24T03:18:34;98807.78;;;13.88;100.00
60240;BME280;46102;39.012;-7.064;2022-11-24T03:20:35;98810.53;;;13.88;100.00
60240;BME280;46102;39.012;-7.064;2022-11-24T03:22:35;98805.81;;;13.88;100.00
60240;BME280;46102;39.012;-7.064;2022-11-24T03:24:36;98800.78;;;13.90;100.00
60240;BME280;46102;39.012;-7.064;2022-11-24T03:26:37;98807.56;;;13.93;100.00
60240;BME280;46102;39.012;-7.064;2022-11-24T03:28:38;98806.09;;;13.95;100.00
60240;BME280;46102;39.012;-7.064;2022-11-24T03:30:39;98804.16;;;13.96;100.00
60240;BME280;46102;39.012;-7.064;2022-11-24T03:32:40;98796.69;;;13.97;100.00
60240;BME280;46102;39.012;-7.064;2022-11-24T03:34:41;98797.03;;;13.95;100.00
60240;BME280;46102;39.012;-7.064;2022-11-24T03:36:42;98791.19;;;13.97;100.00
60240;BME280;46102;39.012;-7.064;2022-11-24T03:38:43;98787.47;;;13.92;100.00
60240;BME280;46102;39.012;-7.064;2022-11-24T03:40:44;98783.91;;;13.92;100.00
60240;BME280;46102;39.012;-7.064;2022-11-24T03:42:44;98782.28;;;13.91;100.00
60240;BME280;46102;39.012;-7.064;2022-11-24T03:44:45;98775.47;;;13.88;100.00
60240;BME280;46102;39.012;-7.064;2022-11-24T03:46:46;98776.63;;;13.87;100.00
60240;BME280;46102;39.012;-7.064;2022-11-24T03:48:46;98766.72;;;13.86;100.00
60240;BME280;46102;39.012;-7.064;2022-11-24T03:50:55;98770.66;;;13.85;100.00
60240;BME280;46102;39.012;-7.064;2022-11-24T03:52:56;98763.03;;;13.82;100.00
60240;BME280;46102;39.012;-7.064;2022-11-24T03:54:57;98778.13;;;13.85;100.00
60240;BME280;46102;39.012;-7.064;2022-11-24T03:56:58;98776.47;;;13.84;100.00
60240;BME280;46102;39.012;-7.064;2022-11-24T03:58:58;98770.00;;;13.80;100.00
60240;BME280;46102;39.012;-7.064;2022-11-24T04:00:59;98765.97;;;13.77;100.00
60240;BME280;46102;39.012;-7.064;2022-11-24T04:03:00;98763.91;;;13.74;100.00
60240;BME280;46102;39.012;-7.064;2022-11-24T04:05:01;98757.72;;;13.77;100.00
60240;BME280;46102;39.012;-7.064;2022-11-24T04:07:01;98760.13;;;13.79;100.00
60240;BME280;46102;39.012;-7.064;2022-11-24T04:09:03;98760.63;;;13.81;100.00
60240;BME280;46102;39.012;-7.064;2022-11-24T04:11:04;98767.88;;;13.85;100.00
60240;BME280;46102;39.012;-7.064;2022-11-24T04:13:11;98767.88;;;13.85;100.00
60240;BME280;46102;39.012;-7.064;2022-11-24T04:15:16;98758.47;;;13.86;100.00
60240;BME280;46102;39.012;-7.064;2022-11-24T04:17:17;98762.00;;;13.87;100.00
60240;BME280;46102;39.012;-7.064;2022-11-24T04:19:18;98753.75;;;13.87;100.00
60240;BME280;46102;39.012;-7.064;2022-11-24T04:21:19;98750.97;;;13.87;100.00
60240;BME280;46102;39.012;-7.064;2022-11-24T04:23:20;98757.81;;;13.89;100.00
60240;BME280;46102;39.012;-7.064;2022-11-24T04:25:20;98753.56;;;13.92;100.00
60240;BME280;46102;39.012;-7.064;2022-11-24T04:27:21;98754.03;;;13.94;100.00
60240;BME280;46102;39.012;-7.064;2022-11-24T04:29:22;98748.19;;;13.95;100.00
60240;BME280;46102;39.012;-7.064;2022-11-24T04:31:22;98749.44;;;13.98;100.00
60240;BME280;46102;39.012;-7.064;2022-11-24T04:33:23;98754.31;;;14.01;100.00
60240;BME280;46102;39.012;-7.064;2022-11-24T04:35:24;98747.78;;;14.06;100.00
60240;BME280;46102;39.012;-7.064;2022-11-24T04:37:25;98756.06;;;14.06;100.00
60240;BME280;46102;39.012;-7.064;2022-11-24T04:39:25;98755.75;;;14.07;100.00
60240;BME280;46102;39.012;-7.064;2022-11-24T04:41:26;98753.09;;;14.11;100.00
60240;BME280;46102;39.012;-7.064;2022-11-24T04:43:27;98748.81;;;14.22;100.00
60240;BME280;46102;39.012;-7.064;2022-11-24T04:45:27;98752.25;;;14.19;100.00
60240;BME280;46102;39.012;-7.064;2022-11-24T04:47:28;98744.28;;;14.18;100.00
60240;BME280;46102;39.012;-7.064;2022-11-24T04:49:29;98735.53;;;14.15;100.00
60240;BME280;46102;39.012;-7.064;2022-11-24T04:51:30;98751.44;;;14.19;100.00
60240;BME280;46102;39.012;-7.064;2022-11-24T04:53:30;98752.84;;;14.25;100.00
60240;BME280;46102;39.012;-7.064;2022-11-24T04:55:31;98752.34;;;14.23;100.00
60240;BME280;46102;39.012;-7.064;2022-11-24T04:57:32;98745.56;;;14.20;100.00
60240;BME280;46102;39.012;-7.064;2022-11-24T04:59:32;98734.22;;;14.22;100.00
60240;BME280;46102;39.012;-7.064;2022-11-24T05:01:33;98727.41;;;14.19;100.00
60240;BME280;46102;39.012;-7.064;2022-11-24T05:03:35;98731.13;;;14.23;100.00
60240;BME280;46102;39.012;-7.064;2022-11-24T05:05:36;98721.22;;;14.22;100.00
60240;BME280;46102;39.012;-7.064;2022-11-24T05:07:37;98728.84;;;14.25;100.00
60240;BME280;46102;39.012;-7.064;2022-11-24T05:09:37;98725.25;;;14.25;100.00
60240;BME280;46102;39.012;-7.064;2022-11-24T05:11:58;98727.41;;;14.19;100.00
60240;BME280;46102;39.012;-7.064;2022-11-24T05:13:59;98726.50;;;14.27;100.00
60240;BME280;46102;39.012;-7.064;2022-11-24T05:16:01;98730.03;;;14.36;100.00
60240;BME280;46102;39.012;-7.064;2022-11-24T05:18:07;98721.94;;;14.31;100.00
60240;BME280;46102;39.012;-7.064;2022-11-24T05:20:08;98716.09;;;14.33;100.00
60240;BME280;46102;39.012;-7.064;2022-11-24T05:22:09;98724.13;;;14.26;100.00
60240;BME280;46102;39.012;-7.064;2022-11-24T05:24:10;98715.84;;;14.26;100.00
60240;BME280;46102;39.012;-7.064;2022-11-24T05:26:10;98712.72;;;14.27;100.00
60240;BME280;46102;39.012;-7.064;2022-11-24T05:28:11;98715.47;;;14.27;100.00
60240;BME280;46102;39.012;-7.064;2022-11-24T05:30:12;98702.03;;;14.26;100.00
60240;BME280;46102;39.012;-7.064;2022-11-24T05:32:13;98709.97;;;14.27;100.00
60240;BME280;46102;39.012;-7.064;2022-11-24T05:34:14;98706.06;;;14.28;100.00
60240;BME280;46102;39.012;-7.064;2022-11-24T05:36:14;98698.91;;;14.27;100.00
60240;BME280;46102;39.012;-7.064;2022-11-24T05:38:34;98697.09;;;14.31;100.00
60240;BME280;46102;39.012;-7.064;2022-11-24T05:40:35;98700.22;;;14.30;100.00
60240;BME280;46102;39.012;-7.064;2022-11-24T05:42:36;98692.38;;;14.32;100.00
60240;BME280;46102;39.012;-7.064;2022-11-24T05:44:40;98698.13;;;14.27;100.00
60240;BME280;46102;39.012;-7.064;2022-11-24T05:46:40;98699.09;;;14.43;100.00
60240;BME280;46102;39.012;-7.064;2022-11-24T05:48:41;98702.34;;;14.45;100.00
60240;BME280;46102;39.012;-7.064;2022-11-24T05:50:42;98698.91;;;14.48;100.00
60240;BME280;46102;39.012;-7.064;2022-11-24T05:52:43;98711.09;;;14.47;100.00
60240;BME280;46102;39.012;-7.064;2022-11-24T05:54:44;98711.16;;;14.38;100.00
60240;BME280;46102;39.012;-7.064;2022-11-24T05:56:44;98711.16;;;14.38;100.00
60240;BME280;46102;39.012;-7.064;2022-11-24T05:58:45;98706.25;;;14.44;100.00
60240;BME280;46102;39.012;-7.064;2022-11-24T06:00:46;98708.69;;;14.46;100.00
60240;BME280;46102;39.012;-7.064;2022-11-24T06:02:47;98714.69;;;14.48;100.00
60240;BME280;46102;39.012;-7.064;2022-11-24T06:04:47;98715.81;;;14.47;100.00
60240;BME280;46102;39.012;-7.064;2022-11-24T06:06:48;98722.41;;;14.54;100.00
60240;BME280;46102;39.012;-7.064;2022-11-24T06:08:49;98723.81;;;14.61;100.00
60240;BME280;46102;39.012;-7.064;2022-11-24T06:10:49;98717.72;;;14.55;100.00
60240;BME280;46102;39.012;-7.064;2022-11-24T06:12:50;98721.41;;;14.59;100.00
60240;BME280;46102;39.012;-7.064;2022-11-24T06:14:51;98728.41;;;14.56;100.00
60240;BME280;46102;39.012;-7.064;2022-11-24T06:16:52;98726.81;;;14.55;100.00
60240;BME280;46102;39.012;-7.064;2022-11-24T06:18:52;98727.38;;;14.61;100.00
60240;BME280;46102;39.012;-7.064;2022-11-24T06:20:53;98723.50;;;14.62;100.00
60240;BME280;46102;39.012;-7.064;2022-11-24T06:22:56;98730.97;;;14.62;100.00
60240;BME280;46102;39.012;-7.064;2022-11-24T06:24:57;98728.47;;;14.69;100.00
60240;BME280;46102;39.012;-7.064;2022-11-24T06:26:58;98726.72;;;14.64;100.00
60240;BME280;46102;39.012;-7.064;2022-11-24T06:28:59;98724.91;;;14.68;100.00
60240;BME280;46102;39.012;-7.064;2022-11-24T06:31:02;98726.09;;;14.58;100.00
60240;BME280;46102;39.012;-7.064;2022-11-24T06:33:03;98716.25;;;14.70;100.00
60240;BME280;46102;39.012;-7.064;2022-11-24T06:35:04;98726.16;;;14.71;100.00
60240;BME280;46102;39.012;-7.064;2022-11-24T06:37:05;98721.22;;;14.76;100.00
60240;BME280;46102;39.012;-7.064;2022-11-24T06:39:06;98721.03;;;14.82;100.00
60240;BME280;46102;39.012;-7.064;2022-11-24T06:41:11;98725.63;;;14.77;100.00
60240;BME280;46102;39.012;-7.064;2022-11-24T06:43:12;98726.41;;;14.78;100.00
60240;BME280;46102;39.012;-7.064;2022-11-24T06:45:14;98724.84;;;14.89;100.00
60240;BME280;46102;39.012;-7.064;2022-11-24T06:47:15;98715.16;;;14.83;100.00
60240;BME280;46102;39.012;-7.064;2022-11-24T06:49:16;98714.09;;;14.75;100.00
60240;BME280;46102;39.012;-7.064;2022-11-24T06:51:17;98726.41;;;14.78;100.00
60240;BME280;46102;39.012;-7.064;2022-11-24T06:53:18;98736.91;;;14.85;100.00
60240;BME280;46102;39.012;-7.064;2022-11-24T06:55:19;98736.31;;;14.79;100.00
60240;BME280;46102;39.012;-7.064;2022-11-24T06:57:20;98733.53;;;14.79;100.00
60240;BME280;46102;39.012;-7.064;2022-11-24T06:59:20;98727.47;;;14.86;100.00
60240;BME280;46102;39.012;-7.064;2022-11-24T07:01:23;98727.47;;;14.86;100.00
60240;BME280;46102;39.012;-7.064;2022-11-24T07:03:24;98723.09;;;14.85;100.00
60240;BME280;46102;39.012;-7.064;2022-11-24T07:05:26;98726.66;;;14.85;100.00
60240;BME280;46102;39.012;-7.064;2022-11-24T07:07:27;98734.22;;;14.76;100.00
60240;BME280;46102;39.012;-7.064;2022-11-24T07:09:27;98732.81;;;14.70;100.00
60240;BME280;46102;39.012;-7.064;2022-11-24T07:11:28;98735.25;;;14.71;100.00
60240;BME280;46102;39.012;-7.064;2022-11-24T07:13:29;98723.78;;;14.82;100.00
60240;BME280;46102;39.012;-7.064;2022-11-24T07:15:30;98735.03;;;14.76;100.00
60240;BME280;46102;39.012;-7.064;2022-11-24T07:17:35;98731.13;;;14.77;100.00
60240;BME280;46102;39.012;-7.064;2022-11-24T07:19:36;98729.31;;;14.82;100.00
60240;BME280;46102;39.012;-7.064;2022-11-24T07:21:36;98733.34;;;14.84;100.00
60240;BME280;46102;39.012;-7.064;2022-11-24T07:23:37;98728.75;;;14.88;100.00
60240;BME280;46102;39.012;-7.064;2022-11-24T07:25:38;98727.94;;;14.88;100.00
60240;BME280;46102;39.012;-7.064;2022-11-24T07:27:39;98721.19;;;14.97;100.00
60240;BME280;46102;39.012;-7.064;2022-11-24T07:29:40;98727.84;;;14.96;100.00
60240;BME280;46102;39.012;-7.064;2022-11-24T07:31:41;98728.16;;;14.95;100.00
60240;BME280;46102;39.012;-7.064;2022-11-24T07:33:41;98724.03;;;14.89;100.00
60240;BME280;46102;39.012;-7.064;2022-11-24T07:35:42;98725.06;;;14.84;100.00
60240;BME280;46102;39.012;-7.064;2022-11-24T07:37:43;98727.97;;;15.00;100.00
60240;BME280;46102;39.012;-7.064;2022-11-24T07:39:44;98728.63;;;14.97;100.00
60240;BME280;46102;39.012;-7.064;2022-11-24T07:41:44;98737.28;;;14.95;100.00
60240;BME280;46102;39.012;-7.064;2022-11-24T07:43:46;98732.56;;;14.96;100.00
60240;BME280;46102;39.012;-7.064;2022-11-24T07:45:51;98742.28;;;14.81;100.00
60240;BME280;46102;39.012;-7.064;2022-11-24T07:47:52;98746.47;;;14.87;100.00
60240;BME280;46102;39.012;-7.064;2022-11-24T07:49:52;98757.19;;;14.89;100.00
60240;BME280;46102;39.012;-7.064;2022-11-24T07:51:53;98746.38;;;14.96;100.00
60240;BME280;46102;39.012;-7.064;2022-11-24T07:53:54;98759.72;;;14.94;100.00
60240;BME280;46102;39.012;-7.064;2022-11-24T07:55:59;98766.03;;;14.94;100.00
60240;BME280;46102;39.012;-7.064;2022-11-24T07:58:01;98766.97;;;14.86;100.00
60240;BME280;46102;39.012;-7.064;2022-11-24T08:00:03;98773.28;;;14.87;100.00
60240;BME280;46102;39.012;-7.064;2022-11-24T08:02:05;98771.19;;;14.84;100.00
60240;BME280;46102;39.012;-7.064;2022-11-24T08:04:05;98770.59;;;14.78;100.00
60240;BME280;46102;39.012;-7.064;2022-11-24T08:06:06;98775.19;;;14.74;100.00
60240;BME280;46102;39.012;-7.064;2022-11-24T08:08:07;98786.28;;;14.86;100.00
60240;BME280;46102;39.012;-7.064;2022-11-24T08:10:08;98775.72;;;14.88;100.00
60240;BME280;46102;39.012;-7.064;2022-11-24T08:12:09;98775.56;;;14.85;100.00
60240;BME280;46102;39.012;-7.064;2022-11-24T08:14:10;98780.38;;;14.75;100.00
60240;BME280;46102;39.012;-7.064;2022-11-24T08:16:13;98778.63;;;14.71;100.00
60240;BME280;46102;39.012;-7.064;2022-11-24T08:18:14;98780.69;;;14.74;100.00
60240;BME280;46102;39.012;-7.064;2022-11-24T08:20:15;98788.34;;;14.89;100.00
60240;BME280;46102;39.012;-7.064;2022-11-24T08:22:16;98784.56;;;14.94;100.00
60240;BME280;46102;39.012;-7.064;2022-11-24T08:24:17;98788.28;;;14.98;100.00
60240;BME280;46102;39.012;-7.064;2022-11-24T08:26:17;98783.88;;;14.97;100.00
60240;BME280;46102;39.012;-7.064;2022-11-24T08:28:18;98790.50;;;15.17;100.00
60240;BME280;46102;39.012;-7.064;2022-11-24T08:30:19;98780.56;;;15.61;100.00
60240;BME280;46102;39.012;-7.064;2022-11-24T08:32:20;98772.84;;;15.92;100.00
60240;BME280;46102;39.012;-7.064;2022-11-24T08:34:21;98787.47;;;16.05;100.00
60240;BME280;46102;39.012;-7.064;2022-11-24T08:36:23;98791.41;;;15.91;100.00
60240;BME280;46102;39.012;-7.064;2022-11-24T08:38:23;98783.00;;;15.88;100.00
60240;BME280;46102;39.012;-7.064;2022-11-24T08:40:24;98791.28;;;15.75;100.00
60240;BME280;46102;39.012;-7.064;2022-11-24T08:42:25;98788.84;;;15.61;100.00
60240;BME280;46102;39.012;-7.064;2022-11-24T08:44:41;98789.31;;;15.64;100.00
60240;BME280;46102;39.012;-7.064;2022-11-24T08:46:43;98790.69;;;15.57;100.00
60240;BME280;46102;39.012;-7.064;2022-11-24T08:48:52;98790.00;;;15.60;100.00
60240;BME280;46102;39.012;-7.064;2022-11-24T08:50:53;98798.97;;;15.57;100.00
60240;BME280;46102;39.012;-7.064;2022-11-24T08:52:54;98800.59;;;15.58;100.00
60240;BME280;46102;39.012;-7.064;2022-11-24T08:54:55;98792.50;;;15.41;100.00
60240;BME280;46102;39.012;-7.064;2022-11-24T08:56:56;98803.56;;;15.41;100.00
60240;BME280;46102;39.012;-7.064;2022-11-24T08:58:57;98808.88;;;15.46;100.00
60240;BME280;46102;39.012;-7.064;2022-11-24T09:01:06;98801.03;;;15.48;100.00
60240;BME280;46102;39.012;-7.064;2022-11-24T09:03:09;98792.19;;;15.43;100.00
60240;BME280;46102;39.012;-7.064;2022-11-24T09:05:10;98805.53;;;15.53;100.00
60240;BME280;46102;39.012;-7.064;2022-11-24T09:07:11;98798.97;;;15.57;100.00
60240;BME280;46102;39.012;-7.064;2022-11-24T09:09:12;98802.81;;;15.65;100.00
60240;BME280;46102;39.012;-7.064;2022-11-24T09:11:14;98808.94;;;15.71;100.00
60240;BME280;46102;39.012;-7.064;2022-11-24T09:13:15;98800.50;;;15.67;100.00
60240;BME280;46102;39.012;-7.064;2022-11-24T09:15:16;98802.72;;;15.74;100.00
60240;BME280;46102;39.012;-7.064;2022-11-24T09:17:19;98807.88;;;15.75;100.00
60240;BME280;46102;39.012;-7.064;2022-11-24T09:19:20;98808.34;;;15.77;100.00
60240;BME280;46102;39.012;-7.064;2022-11-24T09:21:21;98805.03;;;15.72;100.00
60240;BME280;46102;39.012;-7.064;2022-11-24T09:23:22;98804.88;;;15.80;100.00
60240;BME280;46102;39.012;-7.064;2022-11-24T09:25:23;98806.97;;;15.84;100.00
60240;BME280;46102;39.012;-7.064;2022-11-24T09:27:23;98805.94;;;15.88;100.00
60240;BME280;46102;39.012;-7.064;2022-11-24T09:29:24;98809.41;;;15.85;100.00
60240;BME280;46102;39.012;-7.064;2022-11-24T09:31:30;98806.28;;;15.87;100.00
60240;BME280;46102;39.012;-7.064;2022-11-24T09:33:34;98804.88;;;15.80;100.00
60240;BME280;46102;39.012;-7.064;2022-11-24T09:35:36;98810.66;;;15.88;100.00
60240;BME280;46102;39.012;-7.064;2022-11-24T09:37:37;98809.03;;;15.87;100.00
60240;BME280;46102;39.012;-7.064;2022-11-24T09:39:37;98807.53;;;15.89;100.00
60240;BME280;46102;39.012;-7.064;2022-11-24T09:42:01;98811.13;;;15.90;100.00
60240;BME280;46102;39.012;-7.064;2022-11-24T09:46:46;98806.03;;;16.04;100.00
60240;BME280;46102;39.012;-7.064;2022-11-24T09:48:52;98824.16;;;16.01;100.00
60240;BME280;46102;39.012;-7.064;2022-11-24T09:50:56;98814.00;;;16.06;100.00
60240;BME280;46102;39.012;-7.064;2022-11-24T09:57:25;98816.28;;;16.16;100.00
60240;BME280;46102;39.012;-7.064;2022-11-24T09:59:27;98829.09;;;16.08;100.00
60240;BME280;46102;39.012;-7.064;2022-11-24T10:01:30;98822.19;;;16.02;100.00
60240;BME280;46102;39.012;-7.064;2022-11-24T10:03:38;98827.59;;;15.98;100.00
60240;BME280;46102;39.012;-7.064;2022-11-24T10:05:44;98826.13;;;16.01;100.00
60240;BME280;46102;39.012;-7.064;2022-11-24T10:07:59;98822.06;;;15.98;100.00
60240;BME280;46102;39.012;-7.064;2022-11-24T10:10:22;98824.25;;;15.93;100.00
60240;BME280;46102;39.012;-7.064;2022-11-24T10:14:57;98834.75;;;15.87;100.00
60240;BME280;46102;39.012;-7.064;2022-11-24T10:19:38;98837.06;;;15.97;100.00
60240;BME280;46102;39.012;-7.064;2022-11-24T10:26:25;98831.06;;;15.71;100.00
60240;BME280;46102;39.012;-7.064;2022-11-24T10:28:42;98836.88;;;15.69;100.00
60240;BME280;46102;39.012;-7.064;2022-11-24T10:30:44;98834.75;;;15.75;100.00
60240;BME280;46102;39.012;-7.064;2022-11-24T10:32:48;98844.44;;;15.81;100.00
60240;BME280;46102;39.012;-7.064;2022-11-24T10:34:49;98835.47;;;15.96;100.00
60240;BME280;46102;39.012;-7.064;2022-11-24T10:38:57;98821.25;;;16.63;100.00
60240;BME280;46102;39.012;-7.064;2022-11-24T10:41:04;98819.94;;;16.85;100.00
60240;BME280;46102;39.012;-7.064;2022-11-24T10:43:09;98801.59;;;17.09;100.00
60240;BME280;46102;39.012;-7.064;2022-11-24T10:45:12;98803.97;;;17.38;95.93
60240;BME280;46102;39.012;-7.064;2022-11-24T10:47:20;98796.75;;;17.65;95.56
60240;BME280;46102;39.012;-7.064;2022-11-24T10:49:26;98792.53;;;17.87;90.78
60240;BME280;46102;39.012;-7.064;2022-11-24T10:53:56;98801.81;;;18.11;88.05
60240;BME280;46102;39.012;-7.064;2022-11-24T10:56:03;98807.28;;;18.07;85.50
60240;BME280;46102;39.012;-7.064;2022-11-24T10:58:14;98802.63;;;18.12;84.00